sensor_id;sensor_type;location;lat;lon;timestamp;temperature;humidity
3037;DHT22;1528;52.550;13.408;2023-05-10T00:00:02;14.80;8.80
3037;DHT22;1528;52.550;13.408;2023-05-10T00:02:49;14.70;8.90
3037;DHT22;1528;52.550;13.408;2023-05-10T00:05:35;14.70;9.10
3037;DHT22;1528;52.550;13.408;2023-05-10T00:08:21;14.60;9.30
3037;DHT22;1528;52.550;13.408;2023-05-10T00:11:07;14.70;9.00
3037;DHT22;1528;52.550;13.408;2023-05-10T00:13:52;14.60;9.20
3037;DHT22;1528;52.550;13.408;2023-05-10T00:16:39;14.60;9.20
3037;DHT22;1528;52.550;13.408;2023-05-10T00:19:33;14.50;9.40
3037;DHT22;1528;52.550;13.408;2023-05-10T00:22:18;14.50;9.60
3037;DHT22;1528;52.550;13.408;2023-05-10T00:25:05;14.50;9.80
3037;DHT22;1528;52.550;13.408;2023-05-10T00:27:51;14.30;9.80
3037;DHT22;1528;52.550;13.408;2023-05-10T00:30:39;14.40;10.00
3037;DHT22;1528;52.550;13.408;2023-05-10T00:33:26;14.30;10.00
3037;DHT22;1528;52.550;13.408;2023-05-10T00:36:11;14.30;10.00
3037;DHT22;1528;52.550;13.408;2023-05-10T00:38:57;14.30;10.20
3037;DHT22;1528;52.550;13.408;2023-05-10T00:41:42;14.20;10.20
3037;DHT22;1528;52.550;13.408;2023-05-10T00:44:28;14.10;10.30
3037;DHT22;1528;52.550;13.408;2023-05-10T00:47:15;14.00;10.40
3037;DHT22;1528;52.550;13.408;2023-05-10T00:50:03;14.00;10.60
3037;DHT22;1528;52.550;13.408;2023-05-10T00:52:50;14.10;10.40
3037;DHT22;1528;52.550;13.408;2023-05-10T00:55:36;14.00;10.50
3037;DHT22;1528;52.550;13.408;2023-05-10T00:58:22;13.90;10.60
3037;DHT22;1528;52.550;13.408;2023-05-10T01:01:08;14.00;10.80
3037;DHT22;1528;52.550;13.408;2023-05-10T01:03:55;13.90;10.80
3037;DHT22;1528;52.550;13.408;2023-05-10T01:06:43;13.90;10.70
3037;DHT22;1528;52.550;13.408;2023-05-10T01:09:28;13.70;11.10
3037;DHT22;1528;52.550;13.408;2023-05-10T01:12:14;13.80;11.10
3037;DHT22;1528;52.550;13.408;2023-05-10T01:15:00;13.70;11.10
3037;DHT22;1528;52.550;13.408;2023-05-10T01:17:47;13.70;11.50
3037;DHT22;1528;52.550;13.408;2023-05-10T01:20:40;13.70;11.40
3037;DHT22;1528;52.550;13.408;2023-05-10T01:23:42;13.60;11.60
3037;DHT22;1528;52.550;13.408;2023-05-10T01:26:58;13.70;11.70
3037;DHT22;1528;52.550;13.408;2023-05-10T01:30:08;13.50;12.30
3037;DHT22;1528;52.550;13.408;2023-05-10T01:32:59;13.40;12.00
3037;DHT22;1528;52.550;13.408;2023-05-10T01:35:51;13.50;11.90
3037;DHT22;1528;52.550;13.408;2023-05-10T01:38:42;13.40;12.20
3037;DHT22;1528;52.550;13.408;2023-05-10T01:41:37;13.50;12.70
3037;DHT22;1528;52.550;13.408;2023-05-10T01:44:31;13.50;12.00
3037;DHT22;1528;52.550;13.408;2023-05-10T01:47:25;13.50;12.20
3037;DHT22;1528;52.550;13.408;2023-05-10T01:50:18;13.40;12.10
3037;DHT22;1528;52.550;13.408;2023-05-10T01:53:08;13.30;12.50
3037;DHT22;1528;52.550;13.408;2023-05-10T01:55:55;13.30;12.40
3037;DHT22;1528;52.550;13.408;2023-05-10T01:58:43;13.20;12.70
3037;DHT22;1528;52.550;13.408;2023-05-10T02:01:30;13.30;12.60
3037;DHT22;1528;52.550;13.408;2023-05-10T02:04:17;13.20;12.70
3037;DHT22;1528;52.550;13.408;2023-05-10T02:07:06;13.30;12.90
3037;DHT22;1528;52.550;13.408;2023-05-10T02:09:52;13.20;13.00
3037;DHT22;1528;52.550;13.408;2023-05-10T02:12:41;13.10;13.00
3037;DHT22;1528;52.550;13.408;2023-05-10T02:15:28;13.10;13.50
3037;DHT22;1528;52.550;13.408;2023-05-10T02:18:15;13.10;12.80
3037;DHT22;1528;52.550;13.408;2023-05-10T02:21:02;13.20;12.90
3037;DHT22;1528;52.550;13.408;2023-05-10T02:23:52;13.10;12.90
3037;DHT22;1528;52.550;13.408;2023-05-10T02:26:39;13.00;12.90
3037;DHT22;1528;52.550;13.408;2023-05-10T02:29:26;13.00;13.30
3037;DHT22;1528;52.550;13.408;2023-05-10T02:32:12;13.00;13.30
3037;DHT22;1528;52.550;13.408;2023-05-10T02:35:00;13.00;13.30
3037;DHT22;1528;52.550;13.408;2023-05-10T02:37:47;12.80;13.40
3037;DHT22;1528;52.550;13.408;2023-05-10T02:40:36;12.90;13.30
3037;DHT22;1528;52.550;13.408;2023-05-10T02:43:23;12.80;13.40
3037;DHT22;1528;52.550;13.408;2023-05-10T02:46:09;12.80;13.50
3037;DHT22;1528;52.550;13.408;2023-05-10T02:48:55;12.90;13.40
3037;DHT22;1528;52.550;13.408;2023-05-10T02:51:44;12.80;13.60
3037;DHT22;1528;52.550;13.408;2023-05-10T02:54:33;12.60;13.80
3037;DHT22;1528;52.550;13.408;2023-05-10T02:57:26;12.60;13.90
3037;DHT22;1528;52.550;13.408;2023-05-10T03:00:12;12.70;13.90
3037;DHT22;1528;52.550;13.408;2023-05-10T03:02:58;12.70;13.80
3037;DHT22;1528;52.550;13.408;2023-05-10T03:05:44;12.60;14.00
3037;DHT22;1528;52.550;13.408;2023-05-10T03:08:30;12.50;14.00
3037;DHT22;1528;52.550;13.408;2023-05-10T03:11:28;12.50;14.00
3037;DHT22;1528;52.550;13.408;2023-05-10T03:14:32;12.70;13.60
3037;DHT22;1528;52.550;13.408;2023-05-10T03:17:25;12.60;13.50
3037;DHT22;1528;52.550;13.408;2023-05-10T03:20:21;12.70;13.70
3037;DHT22;1528;52.550;13.408;2023-05-10T03:23:12;12.60;13.60
3037;DHT22;1528;52.550;13.408;2023-05-10T03:25:59;12.50;13.80
3037;DHT22;1528;52.550;13.408;2023-05-10T03:28:45;12.40;14.00
3037;DHT22;1528;52.550;13.408;2023-05-10T03:31:34;12.40;14.00
3037;DHT22;1528;52.550;13.408;2023-05-10T03:34:23;12.40;14.00
3037;DHT22;1528;52.550;13.408;2023-05-10T03:37:09;12.40;14.10
3037;DHT22;1528;52.550;13.408;2023-05-10T03:39:54;12.40;14.20
3037;DHT22;1528;52.550;13.408;2023-05-10T03:42:40;12.50;14.20
3037;DHT22;1528;52.550;13.408;2023-05-10T03:45:26;12.50;14.00
3037;DHT22;1528;52.550;13.408;2023-05-10T03:48:13;12.30;14.20
3037;DHT22;1528;52.550;13.408;2023-05-10T03:50:58;12.30;14.50
3037;DHT22;1528;52.550;13.408;2023-05-10T03:53:44;12.50;13.90
3037;DHT22;1528;52.550;13.408;2023-05-10T03:56:30;12.40;14.10
3037;DHT22;1528;52.550;13.408;2023-05-10T03:59:15;12.50;14.20
3037;DHT22;1528;52.550;13.408;2023-05-10T04:02:01;12.40;14.10
3037;DHT22;1528;52.550;13.408;2023-05-10T04:04:48;12.30;14.80
3037;DHT22;1528;52.550;13.408;2023-05-10T04:07:33;12.40;14.10
3037;DHT22;1528;52.550;13.408;2023-05-10T04:10:19;12.30;14.30
3037;DHT22;1528;52.550;13.408;2023-05-10T04:13:05;12.50;14.00
3037;DHT22;1528;52.550;13.408;2023-05-10T04:15:51;12.60;13.90
3037;DHT22;1528;52.550;13.408;2023-05-10T04:18:36;12.50;13.90
3037;DHT22;1528;52.550;13.408;2023-05-10T04:21:39;12.60;13.90
3037;DHT22;1528;52.550;13.408;2023-05-10T04:24:25;12.50;14.00
3037;DHT22;1528;52.550;13.408;2023-05-10T04:27:11;12.40;14.10
3037;DHT22;1528;52.550;13.408;2023-05-10T04:29:56;12.40;14.40
3037;DHT22;1528;52.550;13.408;2023-05-10T04:32:42;12.40;14.10
3037;DHT22;1528;52.550;13.408;2023-05-10T04:35:28;12.50;13.70
3037;DHT22;1528;52.550;13.408;2023-05-10T04:38:15;12.70;13.70
3037;DHT22;1528;52.550;13.408;2023-05-10T04:41:05;12.70;13.60
3037;DHT22;1528;52.550;13.408;2023-05-10T04:43:51;12.80;13.70
3037;DHT22;1528;52.550;13.408;2023-05-10T04:46:37;12.80;13.40
3037;DHT22;1528;52.550;13.408;2023-05-10T04:49:23;12.90;13.50
3037;DHT22;1528;52.550;13.408;2023-05-10T04:52:08;12.90;13.50
3037;DHT22;1528;52.550;13.408;2023-05-10T04:54:55;13.00;13.60
3037;DHT22;1528;52.550;13.408;2023-05-10T04:57:47;13.00;13.40
3037;DHT22;1528;52.550;13.408;2023-05-10T05:00:33;13.10;13.30
3037;DHT22;1528;52.550;13.408;2023-05-10T05:03:19;13.10;13.60
3037;DHT22;1528;52.550;13.408;2023-05-10T05:06:05;13.20;13.00
3037;DHT22;1528;52.550;13.408;2023-05-10T05:08:50;13.20;13.30
3037;DHT22;1528;52.550;13.408;2023-05-10T05:11:37;13.30;13.20
3037;DHT22;1528;52.550;13.408;2023-05-10T05:14:24;13.40;12.90
3037;DHT22;1528;52.550;13.408;2023-05-10T05:17:10;13.40;13.10
3037;DHT22;1528;52.550;13.408;2023-05-10T05:19:55;13.50;12.90
3037;DHT22;1528;52.550;13.408;2023-05-10T05:22:41;13.60;12.70
3037;DHT22;1528;52.550;13.408;2023-05-10T05:25:27;13.60;12.70
3037;DHT22;1528;52.550;13.408;2023-05-10T05:28:13;13.70;12.30
3037;DHT22;1528;52.550;13.408;2023-05-10T05:30:59;13.70;12.90
3037;DHT22;1528;52.550;13.408;2023-05-10T05:33:45;13.80;12.40
3037;DHT22;1528;52.550;13.408;2023-05-10T05:36:30;13.70;12.70
3037;DHT22;1528;52.550;13.408;2023-05-10T05:39:16;13.80;12.60
3037;DHT22;1528;52.550;13.408;2023-05-10T05:42:02;14.00;12.00
3037;DHT22;1528;52.550;13.408;2023-05-10T05:44:49;14.20;11.70
3037;DHT22;1528;52.550;13.408;2023-05-10T05:47:35;14.00;12.00
3037;DHT22;1528;52.550;13.408;2023-05-10T05:50:20;14.00;11.80
3037;DHT22;1528;52.550;13.408;2023-05-10T05:53:06;14.00;11.90
3037;DHT22;1528;52.550;13.408;2023-05-10T05:55:52;14.20;11.90
3037;DHT22;1528;52.550;13.408;2023-05-10T05:58:39;14.40;11.50
3037;DHT22;1528;52.550;13.408;2023-05-10T06:01:26;14.70;11.20
3037;DHT22;1528;52.550;13.408;2023-05-10T06:04:11;14.70;11.30
3037;DHT22;1528;52.550;13.408;2023-05-10T06:06:57;14.70;11.00
3037;DHT22;1528;52.550;13.408;2023-05-10T06:09:42;14.80;11.10
3037;DHT22;1528;52.550;13.408;2023-05-10T06:12:28;14.90;11.00
3037;DHT22;1528;52.550;13.408;2023-05-10T06:15:13;14.80;11.10
3037;DHT22;1528;52.550;13.408;2023-05-10T06:18:00;15.00;11.10
3037;DHT22;1528;52.550;13.408;2023-05-10T06:20:46;15.00;11.20
3037;DHT22;1528;52.550;13.408;2023-05-10T06:23:31;15.00;11.20
3037;DHT22;1528;52.550;13.408;2023-05-10T06:26:17;15.10;11.70
3037;DHT22;1528;52.550;13.408;2023-05-10T06:29:03;15.40;10.40
3037;DHT22;1528;52.550;13.408;2023-05-10T06:31:52;15.50;10.40
3037;DHT22;1528;52.550;13.408;2023-05-10T06:34:39;15.60;10.20
3037;DHT22;1528;52.550;13.408;2023-05-10T06:37:25;15.70;10.00
3037;DHT22;1528;52.550;13.408;2023-05-10T06:40:10;15.70;10.40
3037;DHT22;1528;52.550;13.408;2023-05-10T06:42:56;15.90;9.60
3037;DHT22;1528;52.550;13.408;2023-05-10T06:45:42;15.90;9.60
3037;DHT22;1528;52.550;13.408;2023-05-10T06:48:27;16.00;9.70
3037;DHT22;1528;52.550;13.408;2023-05-10T06:51:15;16.10;9.40
3037;DHT22;1528;52.550;13.408;2023-05-10T06:54:00;16.00;9.70
3037;DHT22;1528;52.550;13.408;2023-05-10T06:56:46;15.90;10.00
3037;DHT22;1528;52.550;13.408;2023-05-10T06:59:31;16.20;9.60
3037;DHT22;1528;52.550;13.408;2023-05-10T07:02:17;16.20;9.70
3037;DHT22;1528;52.550;13.408;2023-05-10T07:05:05;16.20;9.40
3037;DHT22;1528;52.550;13.408;2023-05-10T07:07:52;16.20;9.60
3037;DHT22;1528;52.550;13.408;2023-05-10T07:10:37;16.40;9.30
3037;DHT22;1528;52.550;13.408;2023-05-10T07:13:23;16.50;9.30
3037;DHT22;1528;52.550;13.408;2023-05-10T07:16:08;16.70;9.20
3037;DHT22;1528;52.550;13.408;2023-05-10T07:18:54;16.70;9.00
3037;DHT22;1528;52.550;13.408;2023-05-10T07:21:39;16.80;8.80
3037;DHT22;1528;52.550;13.408;2023-05-10T07:24:28;16.90;8.60
3037;DHT22;1528;52.550;13.408;2023-05-10T07:27:13;16.90;8.60
3037;DHT22;1528;52.550;13.408;2023-05-10T07:29:59;17.00;8.60
3037;DHT22;1528;52.550;13.408;2023-05-10T07:32:45;17.10;8.80
3037;DHT22;1528;52.550;13.408;2023-05-10T07:35:31;17.00;8.60
3037;DHT22;1528;52.550;13.408;2023-05-10T07:38:16;17.10;8.60
3037;DHT22;1528;52.550;13.408;2023-05-10T07:41:03;17.20;8.30
3037;DHT22;1528;52.550;13.408;2023-05-10T07:43:50;17.30;8.40
3037;DHT22;1528;52.550;13.408;2023-05-10T07:46:36;17.40;8.30
3037;DHT22;1528;52.550;13.408;2023-05-10T07:49:21;17.50;8.20
3037;DHT22;1528;52.550;13.408;2023-05-10T07:52:08;17.70;8.00
3037;DHT22;1528;52.550;13.408;2023-05-10T07:54:53;17.70;8.10
3037;DHT22;1528;52.550;13.408;2023-05-10T07:57:42;17.80;8.10
3037;DHT22;1528;52.550;13.408;2023-05-10T08:00:28;17.90;7.80
3037;DHT22;1528;52.550;13.408;2023-05-10T08:03:19;18.00;7.70
3037;DHT22;1528;52.550;13.408;2023-05-10T08:06:06;18.00;7.70
3037;DHT22;1528;52.550;13.408;2023-05-10T08:08:53;18.10;7.50
3037;DHT22;1528;52.550;13.408;2023-05-10T08:11:38;18.30;7.50
3037;DHT22;1528;52.550;13.408;2023-05-10T08:14:26;18.40;7.30
3037;DHT22;1528;52.550;13.408;2023-05-10T08:17:12;18.50;7.10
3037;DHT22;1528;52.550;13.408;2023-05-10T08:19:58;18.40;7.30
3037;DHT22;1528;52.550;13.408;2023-05-10T08:22:44;18.60;7.20
3037;DHT22;1528;52.550;13.408;2023-05-10T08:25:30;18.70;6.70
3037;DHT22;1528;52.550;13.408;2023-05-10T08:28:16;18.80;6.60
3037;DHT22;1528;52.550;13.408;2023-05-10T08:31:04;18.80;6.80
3037;DHT22;1528;52.550;13.408;2023-05-10T08:33:49;19.10;8.10
3037;DHT22;1528;52.550;13.408;2023-05-10T08:36:35;19.10;6.60
3037;DHT22;1528;52.550;13.408;2023-05-10T08:39:21;19.10;6.30
3037;DHT22;1528;52.550;13.408;2023-05-10T08:42:07;19.10;6.60
3037;DHT22;1528;52.550;13.408;2023-05-10T08:44:54;19.30;7.90
3037;DHT22;1528;52.550;13.408;2023-05-10T08:47:42;19.50;6.10
3037;DHT22;1528;52.550;13.408;2023-05-10T08:50:28;19.40;5.70
3037;DHT22;1528;52.550;13.408;2023-05-10T08:53:15;19.50;5.70
3037;DHT22;1528;52.550;13.408;2023-05-10T08:56:02;19.50;5.80
3037;DHT22;1528;52.550;13.408;2023-05-10T08:58:48;19.70;5.40
3037;DHT22;1528;52.550;13.408;2023-05-10T09:01:35;19.80;5.40
3037;DHT22;1528;52.550;13.408;2023-05-10T09:04:23;19.80;4.80
3037;DHT22;1528;52.550;13.408;2023-05-10T09:07:08;20.00;4.80
3037;DHT22;1528;52.550;13.408;2023-05-10T09:09:55;20.10;4.50
3037;DHT22;1528;52.550;13.408;2023-05-10T09:12:42;20.10;4.30
3037;DHT22;1528;52.550;13.408;2023-05-10T09:15:29;20.20;4.10
3037;DHT22;1528;52.550;13.408;2023-05-10T09:18:15;20.20;4.40
3037;DHT22;1528;52.550;13.408;2023-05-10T09:21:02;20.20;4.50
3037;DHT22;1528;52.550;13.408;2023-05-10T09:23:48;20.40;4.10
3037;DHT22;1528;52.550;13.408;2023-05-10T09:26:34;20.50;4.00
3037;DHT22;1528;52.550;13.408;2023-05-10T09:29:20;20.60;3.70
3037;DHT22;1528;52.550;13.408;2023-05-10T09:32:06;20.70;3.80
3037;DHT22;1528;52.550;13.408;2023-05-10T09:34:51;20.80;3.40
3037;DHT22;1528;52.550;13.408;2023-05-10T09:37:41;20.80;3.00
3037;DHT22;1528;52.550;13.408;2023-05-10T09:40:29;20.90;3.10
3037;DHT22;1528;52.550;13.408;2023-05-10T09:43:14;21.00;2.80
3037;DHT22;1528;52.550;13.408;2023-05-10T09:46:08;21.10;2.80
3037;DHT22;1528;52.550;13.408;2023-05-10T09:48:54;21.20;2.60
3037;DHT22;1528;52.550;13.408;2023-05-10T09:51:39;21.20;2.80
3037;DHT22;1528;52.550;13.408;2023-05-10T09:54:26;21.20;2.80
3037;DHT22;1528;52.550;13.408;2023-05-10T09:57:20;21.40;2.60
3037;DHT22;1528;52.550;13.408;2023-05-10T10:00:07;21.40;2.40
3037;DHT22;1528;52.550;13.408;2023-05-10T10:02:55;21.40;2.80
3037;DHT22;1528;52.550;13.408;2023-05-10T10:05:41;21.60;2.60
3037;DHT22;1528;52.550;13.408;2023-05-10T10:08:27;21.60;3.00
3037;DHT22;1528;52.550;13.408;2023-05-10T10:11:14;21.80;2.30
3037;DHT22;1528;52.550;13.408;2023-05-10T10:14:00;21.80;2.30
3037;DHT22;1528;52.550;13.408;2023-05-10T10:16:46;22.00;2.00
3037;DHT22;1528;52.550;13.408;2023-05-10T10:19:33;22.10;1.50
3037;DHT22;1528;52.550;13.408;2023-05-10T10:22:19;22.10;1.30
3037;DHT22;1528;52.550;13.408;2023-05-10T10:25:05;22.20;1.90
3037;DHT22;1528;52.550;13.408;2023-05-10T10:28:03;22.40;1.60
3037;DHT22;1528;52.550;13.408;2023-05-10T10:30:53;22.40;1.20
3037;DHT22;1528;52.550;13.408;2023-05-10T10:33:55;22.60;1.20
3037;DHT22;1528;52.550;13.408;2023-05-10T10:36:45;22.50;1.60
3037;DHT22;1528;52.550;13.408;2023-05-10T10:39:30;22.80;1.40
3037;DHT22;1528;52.550;13.408;2023-05-10T10:42:43;22.80;1.30
3037;DHT22;1528;52.550;13.408;2023-05-10T10:45:30;22.90;1.20
3037;DHT22;1528;52.550;13.408;2023-05-10T10:48:22;23.00;1.00
3037;DHT22;1528;52.550;13.408;2023-05-10T10:51:08;23.30;1.00
3037;DHT22;1528;52.550;13.408;2023-05-10T10:53:54;23.80;1.00
3037;DHT22;1528;52.550;13.408;2023-05-10T10:56:39;24.00;2.30
3037;DHT22;1528;52.550;13.408;2023-05-10T10:59:27;24.10;1.90
3037;DHT22;1528;52.550;13.408;2023-05-10T11:05:33;24.10;2.60
3037;DHT22;1528;52.550;13.408;2023-05-10T11:08:26;24.20;1.00
3037;DHT22;1528;52.550;13.408;2023-05-10T11:11:14;24.30;1.00
3037;DHT22;1528;52.550;13.408;2023-05-10T11:14:04;24.30;1.00
3037;DHT22;1528;52.550;13.408;2023-05-10T11:16:50;24.50;1.00
3037;DHT22;1528;52.550;13.408;2023-05-10T11:19:36;24.70;1.00
3037;DHT22;1528;52.550;13.408;2023-05-10T11:22:25;25.20;1.00
3037;DHT22;1528;52.550;13.408;2023-05-10T11:25:11;25.50;1.00
3037;DHT22;1528;52.550;13.408;2023-05-10T11:27:57;26.70;1.00
3037;DHT22;1528;52.550;13.408;2023-05-10T11:30:44;27.80;1.00
3037;DHT22;1528;52.550;13.408;2023-05-10T11:33:29;29.20;1.00
3037;DHT22;1528;52.550;13.408;2023-05-10T11:36:16;29.30;1.00
3037;DHT22;1528;52.550;13.408;2023-05-10T11:39:04;29.30;1.00
3037;DHT22;1528;52.550;13.408;2023-05-10T11:41:50;29.20;1.00
3037;DHT22;1528;52.550;13.408;2023-05-10T11:44:36;30.00;1.00
3037;DHT22;1528;52.550;13.408;2023-05-10T11:47:22;30.20;1.00
3037;DHT22;1528;52.550;13.408;2023-05-10T11:50:08;30.20;1.00
3037;DHT22;1528;52.550;13.408;2023-05-10T11:52:54;30.30;1.00
3037;DHT22;1528;52.550;13.408;2023-05-10T11:55:42;30.60;1.00
3037;DHT22;1528;52.550;13.408;2023-05-10T11:58:28;31.00;1.00
3037;DHT22;1528;52.550;13.408;2023-05-10T12:01:14;32.00;1.00
3037;DHT22;1528;52.550;13.408;2023-05-10T12:04:00;35.10;1.00
3037;DHT22;1528;52.550;13.408;2023-05-10T12:06:46;38.60;1.00
3037;DHT22;1528;52.550;13.408;2023-05-10T12:09:31;40.90;1.00
3037;DHT22;1528;52.550;13.408;2023-05-10T12:12:18;43.70;1.00
3037;DHT22;1528;52.550;13.408;2023-05-10T12:15:05;45.60;1.00
3037;DHT22;1528;52.550;13.408;2023-05-10T12:17:56;46.90;1.00
3037;DHT22;1528;52.550;13.408;2023-05-10T12:20:42;48.40;1.00
3037;DHT22;1528;52.550;13.408;2023-05-10T12:23:28;50.10;1.00
3037;DHT22;1528;52.550;13.408;2023-05-10T12:26:14;50.90;1.00
3037;DHT22;1528;52.550;13.408;2023-05-10T12:29:15;52.20;1.00
3037;DHT22;1528;52.550;13.408;2023-05-10T12:32:01;52.40;1.00
3037;DHT22;1528;52.550;13.408;2023-05-10T12:34:47;53.30;1.00
3037;DHT22;1528;52.550;13.408;2023-05-10T12:37:32;54.20;1.00
3037;DHT22;1528;52.550;13.408;2023-05-10T12:40:19;52.90;1.00
3037;DHT22;1528;52.550;13.408;2023-05-10T12:43:05;51.50;1.00
3037;DHT22;1528;52.550;13.408;2023-05-10T12:45:52;51.80;1.00
3037;DHT22;1528;52.550;13.408;2023-05-10T12:48:39;53.30;1.00
3037;DHT22;1528;52.550;13.408;2023-05-10T12:51:25;54.10;1.00
3037;DHT22;1528;52.550;13.408;2023-05-10T12:54:10;54.30;1.00
3037;DHT22;1528;52.550;13.408;2023-05-10T12:56:56;54.60;1.00
3037;DHT22;1528;52.550;13.408;2023-05-10T12:59:42;55.00;1.00
3037;DHT22;1528;52.550;13.408;2023-05-10T13:02:28;54.10;1.00
3037;DHT22;1528;52.550;13.408;2023-05-10T13:05:14;54.10;1.00
3037;DHT22;1528;52.550;13.408;2023-05-10T13:08:00;52.40;1.00
3037;DHT22;1528;52.550;13.408;2023-05-10T13:10:46;53.30;1.00
3037;DHT22;1528;52.550;13.408;2023-05-10T13:13:32;52.40;1.00
3037;DHT22;1528;52.550;13.408;2023-05-10T13:16:18;53.30;1.00
3037;DHT22;1528;52.550;13.408;2023-05-10T13:19:05;52.10;1.00
3037;DHT22;1528;52.550;13.408;2023-05-10T13:21:51;52.50;1.00
3037;DHT22;1528;52.550;13.408;2023-05-10T13:24:36;51.50;1.00
3037;DHT22;1528;52.550;13.408;2023-05-10T13:27:22;51.10;1.00
3037;DHT22;1528;52.550;13.408;2023-05-10T13:30:09;52.40;1.00
3037;DHT22;1528;52.550;13.408;2023-05-10T13:32:55;52.60;1.00
3037;DHT22;1528;52.550;13.408;2023-05-10T13:35:43;52.60;1.00
3037;DHT22;1528;52.550;13.408;2023-05-10T13:38:29;52.30;1.00
3037;DHT22;1528;52.550;13.408;2023-05-10T13:41:14;53.50;1.00
3037;DHT22;1528;52.550;13.408;2023-05-10T13:44:00;52.60;1.00
3037;DHT22;1528;52.550;13.408;2023-05-10T13:46:46;52.30;1.00
3037;DHT22;1528;52.550;13.408;2023-05-10T13:49:32;52.70;1.00
3037;DHT22;1528;52.550;13.408;2023-05-10T13:52:19;52.90;1.00
3037;DHT22;1528;52.550;13.408;2023-05-10T13:55:05;52.00;1.00
3037;DHT22;1528;52.550;13.408;2023-05-10T13:57:51;53.00;1.00
3037;DHT22;1528;52.550;13.408;2023-05-10T14:00:37;54.00;1.00
3037;DHT22;1528;52.550;13.408;2023-05-10T14:03:22;53.50;1.00
3037;DHT22;1528;52.550;13.408;2023-05-10T14:06:08;55.00;1.00
3037;DHT22;1528;52.550;13.408;2023-05-10T14:08:56;54.90;1.00
3037;DHT22;1528;52.550;13.408;2023-05-10T14:11:41;53.70;1.00
3037;DHT22;1528;52.550;13.408;2023-05-10T14:14:27;53.00;1.00
3037;DHT22;1528;52.550;13.408;2023-05-10T14:17:13;53.60;1.00
3037;DHT22;1528;52.550;13.408;2023-05-10T14:19:59;55.70;1.00
3037;DHT22;1528;52.550;13.408;2023-05-10T14:22:44;55.90;1.00
3037;DHT22;1528;52.550;13.408;2023-05-10T14:25:31;56.30;1.00
3037;DHT22;1528;52.550;13.408;2023-05-10T14:28:17;57.60;1.00
3037;DHT22;1528;52.550;13.408;2023-05-10T14:31:04;58.10;1.00
3037;DHT22;1528;52.550;13.408;2023-05-10T14:33:50;58.80;1.00
3037;DHT22;1528;52.550;13.408;2023-05-10T14:36:36;57.20;1.00
3037;DHT22;1528;52.550;13.408;2023-05-10T14:39:21;56.80;1.00
3037;DHT22;1528;52.550;13.408;2023-05-10T14:42:09;57.60;1.00
3037;DHT22;1528;52.550;13.408;2023-05-10T14:44:54;58.00;1.00
3037;DHT22;1528;52.550;13.408;2023-05-10T14:47:40;58.30;1.00
3037;DHT22;1528;52.550;13.408;2023-05-10T14:50:26;58.30;1.00
3037;DHT22;1528;52.550;13.408;2023-05-10T14:53:12;58.00;1.00
3037;DHT22;1528;52.550;13.408;2023-05-10T14:55:57;56.00;1.00
3037;DHT22;1528;52.550;13.408;2023-05-10T14:58:45;55.00;1.00
3037;DHT22;1528;52.550;13.408;2023-05-10T15:01:31;55.00;1.00
3037;DHT22;1528;52.550;13.408;2023-05-10T15:04:19;55.70;1.00
3037;DHT22;1528;52.550;13.408;2023-05-10T15:07:05;55.80;1.00
3037;DHT22;1528;52.550;13.408;2023-05-10T15:09:51;53.90;1.00
3037;DHT22;1528;52.550;13.408;2023-05-10T15:12:37;50.20;1.00
3037;DHT22;1528;52.550;13.408;2023-05-10T15:15:24;46.60;1.00
3037;DHT22;1528;52.550;13.408;2023-05-10T15:18:09;44.10;1.00
3037;DHT22;1528;52.550;13.408;2023-05-10T15:20:57;42.10;1.00
3037;DHT22;1528;52.550;13.408;2023-05-10T15:23:46;40.50;1.00
3037;DHT22;1528;52.550;13.408;2023-05-10T15:26:33;38.70;1.00
3037;DHT22;1528;52.550;13.408;2023-05-10T15:29:19;36.90;1.00
3037;DHT22;1528;52.550;13.408;2023-05-10T15:32:06;36.30;1.00
3037;DHT22;1528;52.550;13.408;2023-05-10T15:34:52;35.60;1.00
3037;DHT22;1528;52.550;13.408;2023-05-10T15:37:37;35.20;1.00
3037;DHT22;1528;52.550;13.408;2023-05-10T15:40:23;34.50;1.00
3037;DHT22;1528;52.550;13.408;2023-05-10T15:43:09;33.80;1.00
3037;DHT22;1528;52.550;13.408;2023-05-10T15:45:55;33.20;1.00
3037;DHT22;1528;52.550;13.408;2023-05-10T15:48:42;32.90;1.00
3037;DHT22;1528;52.550;13.408;2023-05-10T15:51:27;32.40;1.00
3037;DHT22;1528;52.550;13.408;2023-05-10T15:54:13;32.10;1.00
3037;DHT22;1528;52.550;13.408;2023-05-10T15:56:59;31.90;1.00
3037;DHT22;1528;52.550;13.408;2023-05-10T15:59:45;31.30;1.00
3037;DHT22;1528;52.550;13.408;2023-05-10T16:02:31;31.10;1.00
3037;DHT22;1528;52.550;13.408;2023-05-10T16:05:18;30.70;1.00
3037;DHT22;1528;52.550;13.408;2023-05-10T16:08:03;29.90;1.00
3037;DHT22;1528;52.550;13.408;2023-05-10T16:10:50;29.60;1.00
3037;DHT22;1528;52.550;13.408;2023-05-10T16:13:36;29.20;1.00
3037;DHT22;1528;52.550;13.408;2023-05-10T16:16:22;29.20;1.00
3037;DHT22;1528;52.550;13.408;2023-05-10T16:19:08;29.10;1.00
3037;DHT22;1528;52.550;13.408;2023-05-10T16:21:55;28.80;1.00
3037;DHT22;1528;52.550;13.408;2023-05-10T16:24:40;28.90;1.00
3037;DHT22;1528;52.550;13.408;2023-05-10T16:27:26;28.60;1.00
3037;DHT22;1528;52.550;13.408;2023-05-10T16:30:13;28.20;1.00
3037;DHT22;1528;52.550;13.408;2023-05-10T16:33:00;27.70;1.00
3037;DHT22;1528;52.550;13.408;2023-05-10T16:35:45;27.40;1.00
3037;DHT22;1528;52.550;13.408;2023-05-10T16:38:32;27.40;1.00
3037;DHT22;1528;52.550;13.408;2023-05-10T16:41:18;27.40;1.00
3037;DHT22;1528;52.550;13.408;2023-05-10T16:44:04;27.10;1.00
3037;DHT22;1528;52.550;13.408;2023-05-10T16:46:50;27.00;1.00
3037;DHT22;1528;52.550;13.408;2023-05-10T16:49:36;27.10;1.00
3037;DHT22;1528;52.550;13.408;2023-05-10T16:52:22;26.90;1.00
3037;DHT22;1528;52.550;13.408;2023-05-10T16:55:09;26.00;1.00
3037;DHT22;1528;52.550;13.408;2023-05-10T16:57:54;25.10;3.90
3037;DHT22;1528;52.550;13.408;2023-05-10T17:00:43;24.40;5.60
3037;DHT22;1528;52.550;13.408;2023-05-10T17:03:28;24.00;6.60
3037;DHT22;1528;52.550;13.408;2023-05-10T17:06:14;23.80;7.40
3037;DHT22;1528;52.550;13.408;2023-05-10T17:09:00;23.50;8.00
3037;DHT22;1528;52.550;13.408;2023-05-10T17:11:47;22.90;9.30
3037;DHT22;1528;52.550;13.408;2023-05-10T17:14:32;22.90;9.60
3037;DHT22;1528;52.550;13.408;2023-05-10T17:17:17;22.60;11.00
3037;DHT22;1528;52.550;13.408;2023-05-10T17:20:04;22.60;11.30
3037;DHT22;1528;52.550;13.408;2023-05-10T17:22:50;22.40;11.20
3037;DHT22;1528;52.550;13.408;2023-05-10T17:25:35;22.20;11.80
3037;DHT22;1528;52.550;13.408;2023-05-10T17:28:22;22.00;11.90
3037;DHT22;1528;52.550;13.408;2023-05-10T17:31:07;22.10;12.00
3037;DHT22;1528;52.550;13.408;2023-05-10T17:33:53;22.00;12.40
3037;DHT22;1528;52.550;13.408;2023-05-10T17:36:39;21.90;12.70
3037;DHT22;1528;52.550;13.408;2023-05-10T17:39:25;21.60;13.40
3037;DHT22;1528;52.550;13.408;2023-05-10T17:42:11;21.40;14.10
3037;DHT22;1528;52.550;13.408;2023-05-10T17:44:59;21.20;14.40
3037;DHT22;1528;52.550;13.408;2023-05-10T17:47:45;21.30;14.70
3037;DHT22;1528;52.550;13.408;2023-05-10T17:50:30;21.20;15.00
3037;DHT22;1528;52.550;13.408;2023-05-10T17:53:16;21.10;15.20
3037;DHT22;1528;52.550;13.408;2023-05-10T17:56:02;21.10;15.40
3037;DHT22;1528;52.550;13.408;2023-05-10T17:58:47;21.00;15.70
3037;DHT22;1528;52.550;13.408;2023-05-10T18:01:35;20.80;16.50
3037;DHT22;1528;52.550;13.408;2023-05-10T18:04:20;20.70;16.30